createdAt,value
2018-07-27T00:00:18.606Z,25.9
2018-07-27T00:01:08.673Z,25.9
2018-07-27T00:01:58.232Z,25.9
2018-07-27T00:02:48.208Z,25.9
2018-07-27T00:03:38.343Z,25.9
2018-07-27T00:04:28.155Z,25.9
2018-07-27T00:05:18.218Z,25.9
2018-07-27T00:06:08.283Z,25.9
2018-07-27T00:06:58.630Z,25.9
2018-07-27T00:07:48.114Z,25.9
2018-07-27T00:08:38.659Z,25.9
2018-07-27T00:09:28.423Z,25.9
2018-07-27T00:10:19.355Z,25.9
2018-07-27T00:11:08.839Z,25.9
2018-07-27T00:11:59.491Z,25.9
2018-07-27T00:12:49.542Z,25.9
2018-07-27T00:13:39.060Z,25.9
2018-07-27T00:14:29.097Z,25.9
2018-07-27T00:15:19.498Z,25.9
2018-07-27T00:16:09.266Z,25.9
2018-07-27T00:16:59.862Z,25.9
2018-07-27T00:17:49.392Z,25.9
2018-07-27T00:18:39.692Z,25.9
2018-07-27T00:19:29.483Z,25.9
2018-07-27T00:20:19.606Z,25.9
2018-07-27T00:21:09.636Z,25.9
2018-07-27T00:21:59.409Z,25.8
2018-07-27T00:22:49.766Z,25.9
2018-07-27T00:23:40.125Z,25.9
2018-07-27T00:24:29.917Z,25.9
2018-07-27T00:25:20.038Z,25.9
2018-07-27T00:26:09.871Z,25.9
2018-07-27T00:27:00.373Z,25.9
2018-07-27T00:27:50.691Z,25.9
2018-07-27T00:28:40.779Z,25.9
2018-07-27T00:29:30.538Z,25.8
2018-07-27T00:30:20.908Z,25.9
2018-07-27T00:31:10.391Z,25.9
2018-07-27T00:32:01.047Z,25.9
2018-07-27T00:32:51.096Z,25.8
2018-07-27T00:33:40.865Z,25.8
2018-07-27T00:34:30.946Z,25.8
2018-07-27T00:35:21.020Z,25.8
2018-07-27T00:36:11.345Z,25.8
2018-07-27T00:37:01.402Z,25.8
2018-07-27T00:37:51.465Z,25.8
2018-07-27T00:38:41.523Z,25.8
2018-07-27T00:39:31.319Z,25.8
2018-07-27T00:40:20.835Z,25.8
2018-07-27T00:41:11.160Z,25.8
2018-07-27T00:42:01.247Z,25.8
2018-07-27T00:42:51.319Z,25.8
2018-07-27T00:43:40.785Z,25.8
2018-07-27T00:44:31.705Z,25.8
2018-07-27T00:45:21.788Z,25.8
2018-07-27T00:46:11.845Z,25.8
2018-07-27T00:47:01.865Z,25.8
2018-07-27T00:47:51.965Z,25.8
2018-07-27T00:48:42.337Z,25.8
2018-07-27T00:49:32.348Z,25.8
2018-07-27T00:50:22.175Z,25.8
2018-07-27T00:51:11.928Z,25.8
2018-07-27T00:52:02.530Z,25.8
2018-07-27T00:52:52.333Z,25.8
2018-07-27T00:53:42.695Z,25.8
2018-07-27T00:54:32.183Z,25.8
2018-07-27T00:55:21.966Z,25.8
2018-07-27T00:56:12.046Z,25.8
2018-07-27T00:57:02.413Z,25.8
2018-07-27T00:57:53.024Z,25.8
2018-07-27T00:58:42.812Z,25.8
2018-07-27T00:59:32.865Z,25.8
2018-07-27T01:00:22.912Z,25.8
2018-07-27T01:01:13.018Z,25.8
2018-07-27T01:02:02.499Z,25.8
2018-07-27T01:02:53.507Z,25.8
2018-07-27T01:03:42.890Z,25.8
2018-07-27T01:04:33.276Z,25.8
2018-07-27T01:05:23.294Z,25.8
2018-07-27T01:06:13.368Z,25.8
2018-07-27T01:07:03.709Z,25.8
2018-07-27T01:07:53.258Z,25.8
2018-07-27T01:08:43.331Z,25.8
2018-07-27T01:09:33.893Z,25.8
2018-07-27T01:10:23.953Z,25.8
2018-07-27T01:11:14.005Z,25.8
2018-07-27T01:12:03.501Z,25.8
2018-07-27T01:12:54.184Z,25.8
2018-07-27T01:13:44.215Z,25.8
2018-07-27T01:14:33.740Z,25.8
2018-07-27T01:15:24.065Z,25.8
2018-07-27T01:16:13.867Z,25.8
2018-07-27T01:17:03.919Z,25.8
2018-07-27T01:17:53.961Z,25.8
2018-07-27T01:18:44.584Z,25.8
2018-07-27T01:19:34.368Z,25.8
2018-07-27T01:20:24.764Z,25.8
2018-07-27T01:21:14.776Z,25.8
2018-07-27T01:22:04.321Z,25.8
2018-07-27T01:22:54.676Z,25.8
2018-07-27T01:23:44.965Z,25.8
2018-07-27T01:24:34.770Z,25.8
2018-07-27T01:25:24.917Z,25.8
2018-07-27T01:26:15.181Z,25.8
2018-07-27T01:27:04.688Z,25.8
2018-07-27T01:27:55.318Z,25.7
2018-07-27T01:28:45.351Z,25.8
2018-07-27T01:29:35.433Z,25.8
2018-07-27T01:30:25.507Z,25.8
2018-07-27T01:31:15.537Z,25.7
2018-07-27T01:32:05.064Z,25.8
2018-07-27T01:32:55.426Z,25.7
2018-07-27T01:33:45.762Z,25.7
2018-07-27T01:34:35.532Z,25.8
2018-07-27T01:35:25.621Z,25.7
2018-07-27T01:36:15.420Z,25.7
2018-07-27T01:37:05.166Z,25.7
2018-07-27T01:37:55.491Z,25.7
2018-07-27T01:38:45.588Z,25.7
2018-07-27T01:39:36.195Z,25.7
2018-07-27T01:40:25.721Z,25.7
2018-07-27T01:41:16.313Z,25.7
2018-07-27T01:42:05.820Z,25.7
2018-07-27T01:42:56.470Z,25.7
2018-07-27T01:43:46.510Z,25.7
2018-07-27T01:44:36.318Z,25.7
2018-07-27T01:45:26.092Z,25.7
2018-07-27T01:46:16.148Z,25.7
2018-07-27T01:47:06.757Z,25.7
2018-07-27T01:47:56.868Z,25.7
2018-07-27T01:48:46.888Z,25.7
2018-07-27T01:49:36.689Z,25.7
2018-07-27T01:50:27.012Z,25.7
2018-07-27T01:51:16.819Z,25.7
2018-07-27T01:52:06.604Z,25.7
2018-07-27T01:52:56.917Z,25.7
2018-07-27T01:53:47.271Z,25.7
2018-07-27T01:54:36.850Z,25.7
2018-07-27T01:55:27.411Z,25.7
2018-07-27T01:56:17.491Z,25.7
2018-07-27T01:57:07.530Z,25.7
2018-07-27T01:57:57.580Z,25.7
2018-07-27T01:58:47.408Z,25.7
2018-07-27T01:59:37.416Z,25.7
2018-07-27T02:00:27.788Z,25.7
2018-07-27T02:01:17.866Z,25.7
2018-07-27T02:02:07.694Z,25.7
2018-07-27T02:02:57.984Z,25.7
2018-07-27T02:03:47.487Z,25.7
2018-07-27T02:04:37.269Z,25.7
2018-07-27T02:05:27.888Z,25.6
2018-07-27T02:06:18.276Z,25.7
2018-07-27T02:07:07.803Z,25.7
2018-07-27T02:07:57.536Z,25.7
2018-07-27T02:08:48.444Z,25.6
2018-07-27T02:09:38.508Z,25.7
2018-07-27T02:10:28.561Z,25.7
2018-07-27T02:11:18.072Z,25.6
2018-07-27T02:12:08.445Z,25.7
2018-07-27T02:12:58.736Z,25.7
2018-07-27T02:13:48.569Z,25.6
2018-07-27T02:14:38.943Z,25.6
2018-07-27T02:15:28.954Z,25.6
2018-07-27T02:16:18.791Z,25.6
2018-07-27T02:17:08.544Z,25.6
2018-07-27T02:17:59.161Z,25.7
2018-07-27T02:18:48.693Z,25.6
2018-07-27T02:19:39.013Z,25.6
2018-07-27T02:20:29.045Z,25.6
2018-07-27T02:21:19.175Z,25.6
2018-07-27T02:22:09.470Z,25.6
2018-07-27T02:22:59.246Z,25.6
2018-07-27T02:23:49.594Z,25.6
2018-07-27T02:24:39.662Z,25.6
2018-07-27T02:25:29.455Z,25.6
2018-07-27T02:26:18.949Z,25.6
2018-07-27T02:27:09.566Z,25.6
2018-07-27T02:27:59.637Z,25.6
2018-07-27T02:28:49.948Z,25.6
2018-07-27T02:29:40.056Z,25.6
2018-07-27T02:30:29.268Z,25.6
2018-07-27T02:31:19.893Z,25.6
2018-07-27T02:32:10.214Z,25.6
2018-07-27T02:33:00.332Z,25.6
2018-07-27T02:33:50.058Z,25.6
2018-07-27T02:34:40.454Z,25.6
2018-07-27T02:35:30.215Z,25.6
2018-07-27T02:36:20.577Z,25.6
2018-07-27T02:37:10.613Z,25.6
2018-07-27T02:38:00.452Z,25.6
2018-07-27T02:38:50.745Z,25.6
2018-07-27T02:39:40.542Z,25.6
2018-07-27T02:40:30.890Z,25.6
2018-07-27T02:41:20.954Z,25.6
2018-07-27T02:42:10.420Z,25.6
2018-07-27T02:43:00.499Z,25.6
2018-07-27T02:43:50.601Z,25.6
2018-07-27T02:44:40.360Z,25.6
2018-07-27T02:45:30.520Z,25.6
2018-07-27T02:46:21.364Z,25.6
2018-07-27T02:47:11.117Z,25.6
2018-07-27T02:48:01.223Z,25.6
2018-07-27T02:48:51.248Z,25.6
2018-07-27T02:49:41.624Z,25.6
2018-07-27T02:50:31.368Z,25.6
2018-07-27T02:51:21.279Z,25.6
2018-07-27T02:52:11.801Z,25.6
2018-07-27T02:53:01.670Z,25.6
2018-07-27T02:53:51.915Z,25.6
2018-07-27T02:54:41.717Z,25.6
2018-07-27T02:55:31.756Z,25.6
2018-07-27T02:56:21.534Z,25.6
2018-07-27T02:57:11.859Z,25.6
2018-07-27T02:58:01.958Z,25.6
2018-07-27T02:58:51.709Z,25.6
2018-07-27T02:59:42.375Z,25.6
2018-07-27T03:00:32.122Z,25.6
2018-07-27T03:01:22.192Z,25.6
2018-07-27T03:02:11.984Z,25.6
2018-07-27T03:03:02.606Z,25.6
2018-07-27T03:03:52.672Z,25.6
2018-07-27T03:04:42.448Z,25.6
2018-07-27T03:05:32.536Z,25.6
2018-07-27T03:06:22.648Z,25.6
2018-07-27T03:07:12.924Z,25.6
2018-07-27T03:08:02.712Z,25.6
2018-07-27T03:08:52.508Z,25.6
2018-07-27T03:09:42.810Z,25.6
2018-07-27T03:10:32.925Z,25.6
2018-07-27T03:11:23.254Z,25.6
2018-07-27T03:12:13.031Z,25.6
2018-07-27T03:13:03.380Z,25.6
2018-07-27T03:13:52.895Z,25.6
2018-07-27T03:14:42.694Z,25.6
2018-07-27T03:15:32.720Z,25.6
2018-07-27T03:16:23.123Z,25.6
2018-07-27T03:17:13.382Z,25.6
2018-07-27T03:18:03.777Z,25.6
2018-07-27T03:18:53.782Z,25.6
2018-07-27T03:19:43.325Z,25.6
2018-07-27T03:20:33.937Z,25.6
2018-07-27T03:21:23.993Z,25.6
2018-07-27T03:22:13.520Z,25.6
2018-07-27T03:23:04.116Z,25.6
2018-07-27T03:23:53.955Z,25.6
2018-07-27T03:24:43.980Z,25.6
2018-07-27T03:25:34.154Z,25.6
2018-07-27T03:26:24.123Z,25.6
2018-07-27T03:27:14.142Z,25.6
2018-07-27T03:28:04.519Z,25.6
2018-07-27T03:28:53.994Z,25.6
2018-07-27T03:29:44.340Z,25.6
2018-07-27T03:30:34.858Z,25.6
2018-07-27T03:31:24.801Z,25.6
2018-07-27T03:32:14.110Z,25.6
2018-07-27T03:33:04.644Z,25.6
2018-07-27T03:33:54.995Z,25.5
2018-07-27T03:34:45.010Z,25.6
2018-07-27T03:35:34.544Z,25.6
2018-07-27T03:36:24.882Z,25.5
2018-07-27T03:37:14.927Z,25.6
2018-07-27T03:38:04.543Z,25.5
2018-07-27T03:38:55.037Z,25.5
2018-07-27T03:39:44.852Z,25.5
2018-07-27T03:40:35.215Z,25.6
2018-07-27T03:41:25.349Z,25.5
2018-07-27T03:42:15.167Z,25.5
2018-07-27T03:43:05.657Z,25.5
2018-07-27T03:43:55.471Z,25.5
2018-07-27T03:44:45.244Z,25.5
2018-07-27T03:45:35.961Z,25.5
2018-07-27T03:46:25.082Z,25.5
2018-07-27T03:47:15.409Z,25.5
2018-07-27T03:48:06.099Z,25.5
2018-07-27T03:48:56.088Z,25.5
2018-07-27T03:49:45.611Z,25.5
2018-07-27T03:50:35.689Z,25.5
2018-07-27T03:51:25.755Z,25.5
2018-07-27T03:52:16.383Z,25.5
2018-07-27T03:53:06.408Z,25.5
2018-07-27T03:53:55.933Z,25.5
2018-07-27T03:54:45.973Z,25.5
2018-07-27T03:55:36.641Z,25.5
2018-07-27T03:56:26.672Z,25.5
2018-07-27T03:57:16.763Z,25.5
2018-07-27T03:58:06.262Z,25.5
2018-07-27T03:58:56.304Z,25.5
2018-07-27T03:59:46.645Z,25.5
2018-07-27T04:00:36.449Z,25.5
2018-07-27T04:01:27.105Z,25.5
2018-07-27T04:02:17.155Z,25.5
2018-07-27T04:03:06.371Z,25.5
2018-07-27T04:03:57.302Z,25.5
2018-07-27T04:04:46.725Z,25.5
2018-07-27T04:05:37.392Z,25.5
2018-07-27T04:06:27.420Z,25.5
2018-07-27T04:07:17.575Z,25.5
2018-07-27T04:08:07.603Z,25.5
2018-07-27T04:08:57.652Z,25.5
2018-07-27T04:09:47.694Z,25.5
2018-07-27T04:10:37.225Z,25.5
2018-07-27T04:11:27.550Z,25.6
2018-07-27T04:12:17.920Z,25.6
2018-07-27T04:13:07.409Z,25.6
2018-07-27T04:13:57.817Z,25.6
2018-07-27T04:14:47.554Z,25.5
2018-07-27T04:15:38.140Z,25.6
2018-07-27T04:16:28.221Z,25.6
2018-07-27T04:17:18.293Z,25.6
2018-07-27T04:18:07.782Z,25.6
2018-07-27T04:18:58.119Z,25.6
2018-07-27T04:19:48.479Z,25.5
2018-07-27T04:20:37.499Z,25.6
2018-07-27T04:21:28.584Z,25.6
2018-07-27T04:22:17.835Z,25.6
2018-07-27T04:23:08.169Z,25.6
2018-07-27T04:23:58.527Z,25.6
2018-07-27T04:24:48.328Z,25.5
2018-07-27T04:25:38.371Z,25.6
2018-07-27T04:26:29.439Z,25.6
2018-07-27T04:27:18.300Z,25.5
2018-07-27T04:28:09.085Z,25.5
2018-07-27T04:28:59.196Z,25.6
2018-07-27T04:29:49.256Z,25.6
2018-07-27T04:30:38.730Z,25.6
2018-07-27T04:31:29.359Z,25.6
2018-07-27T04:32:18.651Z,25.6
2018-07-27T04:33:08.933Z,25.6
2018-07-27T04:33:59.567Z,25.6
2018-07-27T04:34:49.341Z,25.6
2018-07-27T04:35:39.721Z,25.5
2018-07-27T04:36:29.730Z,25.6
2018-07-27T04:37:19.821Z,25.6
2018-07-27T04:38:09.615Z,25.6
2018-07-27T04:38:59.918Z,25.5
2018-07-27T04:39:50.031Z,25.5
2018-07-27T04:40:39.552Z,25.5
2018-07-27T04:41:30.093Z,25.6
2018-07-27T04:42:20.172Z,25.6
2018-07-27T04:43:09.985Z,25.6
2018-07-27T04:44:00.285Z,25.5
2018-07-27T04:44:50.369Z,25.6
2018-07-27T04:45:40.417Z,25.5
2018-07-27T04:46:30.005Z,25.6
2018-07-27T04:47:20.306Z,25.6
2018-07-27T04:48:10.617Z,25.6
2018-07-27T04:49:00.136Z,25.7
2018-07-27T04:49:50.190Z,25.7
2018-07-27T04:50:40.555Z,25.8
2018-07-27T04:51:30.654Z,25.8
2018-07-27T04:52:20.691Z,25.8
2018-07-27T04:53:11.029Z,25.8
2018-07-27T04:54:01.101Z,25.7
2018-07-27T04:54:51.136Z,25.7
2018-07-27T04:55:40.644Z,25.7
2018-07-27T04:56:30.656Z,25.7
2018-07-27T04:57:21.072Z,25.7
2018-07-27T04:58:11.410Z,25.7
2018-07-27T04:59:00.919Z,25.7
2018-07-27T04:59:51.524Z,25.6
2018-07-27T05:00:41.131Z,25.6
2018-07-27T05:01:31.653Z,25.7
2018-07-27T05:02:21.710Z,25.6
2018-07-27T05:03:11.033Z,25.6
2018-07-27T05:04:01.815Z,25.6
2018-07-27T05:04:52.086Z,25.6
2018-07-27T05:05:41.686Z,25.6
2018-07-27T05:06:31.783Z,25.6
2018-07-27T05:07:22.079Z,25.6
2018-07-27T05:08:11.874Z,25.6
2018-07-27T05:09:02.214Z,25.6
2018-07-27T05:09:52.279Z,25.6
2018-07-27T05:10:42.332Z,25.6
2018-07-27T05:11:32.463Z,25.6
2018-07-27T05:12:22.246Z,25.6
2018-07-27T05:13:12.064Z,25.6
2018-07-27T05:14:02.596Z,25.6
2018-07-27T05:14:52.124Z,25.6
2018-07-27T05:15:42.752Z,25.6
2018-07-27T05:16:32.515Z,25.6
2018-07-27T05:17:22.107Z,25.6
2018-07-27T05:18:12.746Z,25.6
2018-07-27T05:19:02.518Z,25.6
2018-07-27T05:19:52.822Z,25.6
2018-07-27T05:20:42.863Z,25.6
2018-07-27T05:21:32.930Z,25.6
2018-07-27T05:22:22.768Z,25.6
2018-07-27T05:23:12.822Z,25.6
2018-07-27T05:24:03.113Z,25.6
2018-07-27T05:24:53.502Z,25.6
2018-07-27T05:25:43.259Z,25.6
2018-07-27T05:26:33.297Z,25.6
2018-07-27T05:27:23.356Z,25.6
2018-07-27T05:28:13.177Z,25.6
2018-07-27T05:29:03.776Z,25.6
2018-07-27T05:29:53.821Z,25.6
2018-07-27T05:30:43.335Z,25.6
2018-07-27T05:31:33.667Z,25.6
2018-07-27T05:32:23.235Z,25.6
2018-07-27T05:33:13.792Z,25.6
2018-07-27T05:34:03.884Z,25.6
2018-07-27T05:34:53.406Z,25.6
2018-07-27T05:35:44.012Z,25.6
2018-07-27T05:36:34.050Z,25.6
2018-07-27T05:37:24.395Z,25.6
2018-07-27T05:38:14.185Z,25.6
2018-07-27T05:39:04.281Z,25.6
2018-07-27T05:39:54.312Z,25.6
2018-07-27T05:40:44.109Z,25.6
2018-07-27T05:41:33.904Z,25.5
2018-07-27T05:42:24.211Z,25.5
2018-07-27T05:43:14.827Z,25.6
2018-07-27T05:44:04.635Z,25.6
2018-07-27T05:44:54.444Z,25.5
2018-07-27T05:45:44.746Z,25.5
2018-07-27T05:46:35.096Z,25.6
2018-07-27T05:47:24.609Z,25.5
2018-07-27T05:48:14.647Z,25.5
2018-07-27T05:49:05.298Z,25.5
2018-07-27T05:49:55.343Z,25.5
2018-07-27T05:50:45.424Z,25.5
2018-07-27T05:51:35.467Z,25.5
2018-07-27T05:52:25.255Z,25.5
2018-07-27T05:53:15.588Z,25.5
2018-07-27T05:54:05.415Z,25.5
2018-07-27T05:54:54.688Z,25.5
2018-07-27T05:55:45.798Z,25.5
2018-07-27T05:56:35.843Z,25.5
2018-07-27T05:57:25.918Z,25.5
2018-07-27T05:58:15.715Z,25.5
2018-07-27T05:59:06.074Z,25.5
2018-07-27T05:59:56.103Z,25.5
2018-07-27T06:00:46.186Z,25.5
2018-07-27T06:01:36.235Z,25.5
2018-07-27T06:02:26.071Z,25.5
2018-07-27T06:03:16.120Z,25.5
2018-07-27T06:04:06.455Z,25.5
2018-07-27T06:04:56.990Z,25.5
2018-07-27T06:05:46.611Z,25.4
2018-07-27T06:06:36.351Z,25.4
2018-07-27T06:07:26.415Z,25.5
2018-07-27T06:08:16.783Z,25.5
2018-07-27T06:09:06.273Z,25.4
2018-07-27T06:09:56.614Z,25.4
2018-07-27T06:10:46.686Z,25.4
2018-07-27T06:11:36.737Z,25.4
2018-07-27T06:12:26.224Z,25.4
2018-07-27T06:13:17.162Z,25.4
2018-07-27T06:14:07.198Z,25.4
2018-07-27T06:14:56.706Z,25.4
2018-07-27T06:15:47.305Z,25.5
2018-07-27T06:16:37.083Z,25.4
2018-07-27T06:17:27.490Z,25.4
2018-07-27T06:18:17.900Z,25.4
2018-07-27T06:19:07.584Z,25.4
2018-07-27T06:19:57.623Z,25.4
2018-07-27T06:20:47.432Z,25.4
2018-07-27T06:21:37.807Z,25.4
2018-07-27T06:22:27.569Z,25.4
2018-07-27T06:23:17.929Z,25.4
2018-07-27T06:24:09.022Z,25.4
2018-07-27T06:24:57.489Z,25.4
2018-07-27T06:25:47.915Z,25.4
2018-07-27T06:26:37.917Z,25.4
2018-07-27T06:27:27.928Z,25.4
2018-07-27T06:28:18.875Z,25.4
2018-07-27T06:29:08.554Z,25.4
2018-07-27T06:29:58.559Z,25.4
2018-07-27T06:30:48.449Z,25.4
2018-07-27T06:31:38.519Z,25.4
2018-07-27T06:32:28.133Z,25.4
2018-07-27T06:33:18.699Z,25.4
2018-07-27T06:34:08.494Z,25.4
2018-07-27T06:34:58.264Z,25.4
2018-07-27T06:35:48.291Z,25.4
2018-07-27T06:36:38.356Z,25.4
2018-07-27T06:37:28.985Z,25.4
2018-07-27T06:38:19.060Z,25.4
2018-07-27T06:39:09.666Z,25.4
2018-07-27T06:39:58.905Z,25.4
2018-07-27T06:40:49.246Z,25.4
2018-07-27T06:41:38.751Z,25.4
2018-07-27T06:42:29.091Z,25.4
2018-07-27T06:43:19.427Z,25.4
2018-07-27T06:44:09.232Z,25.4
2018-07-27T06:44:59.030Z,25.4
2018-07-27T06:45:49.157Z,25.4
2018-07-27T06:46:39.534Z,25.4
2018-07-27T06:47:28.918Z,25.4
2018-07-27T06:48:19.542Z,25.4
2018-07-27T06:49:09.133Z,25.4
2018-07-27T06:49:59.094Z,25.4
2018-07-27T06:50:49.546Z,25.4
2018-07-27T06:51:40.128Z,25.4
2018-07-27T06:52:30.338Z,25.4
2018-07-27T06:53:19.439Z,25.4
2018-07-27T06:54:10.020Z,25.4
2018-07-27T06:54:59.570Z,25.4
2018-07-27T06:55:50.167Z,25.4
2018-07-27T06:56:39.712Z,25.4
2018-07-27T06:57:30.538Z,25.4
2018-07-27T06:58:20.317Z,25.4
2018-07-27T06:59:10.388Z,25.4
2018-07-27T07:00:00.157Z,25.4
2018-07-27T07:00:49.965Z,25.4
2018-07-27T07:01:40.861Z,25.4
2018-07-27T07:02:30.361Z,25.4
2018-07-27T07:03:20.800Z,25.4
2018-07-27T07:04:10.756Z,25.4
2018-07-27T07:04:59.965Z,25.4
2018-07-27T07:05:50.574Z,25.4
2018-07-27T07:06:41.215Z,25.4
2018-07-27T07:07:31.287Z,25.4
2018-07-27T07:08:21.063Z,25.4
2018-07-27T07:09:11.617Z,25.4
2018-07-27T07:10:00.917Z,25.4
2018-07-27T07:10:51.567Z,25.4
2018-07-27T07:11:41.040Z,25.4
2018-07-27T07:12:31.132Z,25.4
2018-07-27T07:13:21.332Z,25.4
2018-07-27T07:14:11.810Z,25.3
2018-07-27T07:15:01.574Z,25.3
2018-07-27T07:15:51.915Z,25.3
2018-07-27T07:16:41.709Z,25.3
2018-07-27T07:17:31.786Z,25.3
2018-07-27T07:18:22.240Z,25.3
2018-07-27T07:19:12.171Z,25.3
2018-07-27T07:20:02.257Z,25.3
2018-07-27T07:20:51.757Z,25.3
2018-07-27T07:21:42.107Z,25.3
2018-07-27T07:22:31.896Z,25.3
2018-07-27T07:23:22.499Z,25.3
2018-07-27T07:24:12.556Z,25.3
2018-07-27T07:25:02.634Z,25.3
2018-07-27T07:25:54.746Z,25.3
2018-07-27T07:26:42.763Z,25.3
2018-07-27T07:27:32.526Z,25.3
2018-07-27T07:28:22.860Z,25.3
2018-07-27T07:29:12.925Z,25.3
2018-07-27T07:30:03.033Z,25.3
2018-07-27T07:30:53.097Z,25.3
2018-07-27T07:31:42.872Z,25.3
2018-07-27T07:32:32.664Z,25.3
2018-07-27T07:33:23.289Z,25.3
2018-07-27T07:34:13.368Z,25.3
2018-07-27T07:35:03.396Z,25.3
2018-07-27T07:35:53.154Z,25.3
2018-07-27T07:36:43.540Z,25.3
2018-07-27T07:37:33.570Z,25.3
2018-07-27T07:38:23.352Z,25.3
2018-07-27T07:39:14.250Z,25.3
2018-07-27T07:40:03.791Z,25.3
2018-07-27T07:40:53.842Z,25.3
2018-07-27T07:41:43.640Z,25.3
2018-07-27T07:42:34.007Z,25.3
2018-07-27T07:43:23.470Z,25.3
2018-07-27T07:44:14.141Z,25.3
2018-07-27T07:45:04.485Z,25.3
2018-07-27T07:45:54.275Z,25.3
2018-07-27T07:46:44.380Z,25.3
2018-07-27T07:47:34.528Z,25.3
2018-07-27T07:48:24.509Z,25.3
2018-07-27T07:49:14.599Z,25.3
2018-07-27T07:50:04.608Z,25.3
2018-07-27T07:50:54.344Z,25.3
2018-07-27T07:51:43.949Z,25.3
2018-07-27T07:52:33.999Z,25.3
2018-07-27T07:53:24.887Z,25.3
2018-07-27T07:54:14.911Z,25.3
2018-07-27T07:55:05.011Z,25.3
2018-07-27T07:55:55.051Z,25.3
2018-07-27T07:56:45.117Z,25.3
2018-07-27T07:57:35.138Z,25.3
2018-07-27T07:58:24.383Z,25.3
2018-07-27T07:59:15.304Z,25.3
2018-07-27T08:00:05.333Z,25.3
2018-07-27T08:00:55.393Z,25.3
2018-07-27T08:01:45.208Z,25.3
2018-07-27T08:02:35.623Z,25.3
2018-07-27T08:03:25.361Z,25.3
2018-07-27T08:04:15.484Z,25.3
2018-07-27T08:05:05.473Z,25.3
2018-07-27T08:05:55.491Z,25.3
2018-07-27T08:06:45.317Z,25.3
2018-07-27T08:07:35.064Z,25.3
2018-07-27T08:08:25.975Z,25.3
2018-07-27T08:09:16.003Z,25.3
2018-07-27T08:10:05.568Z,25.3
2018-07-27T08:10:55.348Z,25.3
2018-07-27T08:11:45.955Z,25.2
2018-07-27T08:12:36.453Z,25.2
2018-07-27T08:13:25.842Z,25.3
2018-07-27T08:14:15.894Z,25.2
2018-07-27T08:15:06.259Z,25.2
2018-07-27T08:15:56.367Z,25.2
2018-07-27T08:16:45.765Z,25.2
2018-07-27T08:17:36.701Z,25.2
2018-07-27T08:18:26.752Z,25.2
2018-07-27T08:19:16.837Z,25.2
2018-07-27T08:20:06.908Z,25.2
2018-07-27T08:20:56.384Z,25.2
2018-07-27T08:21:46.942Z,25.2
2018-07-27T08:22:37.105Z,25.2
2018-07-27T08:23:27.163Z,25.2
2018-07-27T08:24:16.909Z,25.2
2018-07-27T08:25:06.989Z,25.4
2018-07-27T08:25:57.546Z,25.7
2018-07-27T08:26:47.378Z,43.2
2018-07-27T08:27:36.888Z,54.6
2018-07-27T08:28:27.231Z,56
2018-07-27T08:29:17.575Z,54.3
2018-07-27T08:30:07.425Z,53.4
2018-07-27T08:30:57.129Z,52.8
2018-07-27T08:31:47.789Z,52.1
2018-07-27T08:32:37.561Z,51.4
2018-07-27T08:33:27.863Z,50.8
2018-07-27T08:34:17.927Z,50.1
2018-07-27T08:35:08.064Z,49.4
2018-07-27T08:35:57.828Z,48.8
2018-07-27T08:36:47.597Z,48.3
2018-07-27T08:37:38.463Z,47.7
2018-07-27T08:38:28.322Z,47.2
2018-07-27T08:39:18.126Z,46.6
2018-07-27T08:40:08.161Z,46.1
2018-07-27T08:40:58.527Z,45.6
2018-07-27T08:41:48.557Z,45.1
2018-07-27T08:42:38.147Z,44.6
2018-07-27T08:43:28.709Z,44.1
2018-07-27T08:44:18.462Z,43.7
2018-07-27T08:45:08.835Z,43.3
2018-07-27T08:45:58.644Z,42.9
2018-07-27T08:46:48.988Z,42.5
2018-07-27T08:47:38.727Z,42.1
2018-07-27T08:48:29.074Z,41.7
2018-07-27T08:49:18.574Z,41.4
2018-07-27T08:50:09.219Z,42.1
2018-07-27T08:50:59.279Z,42.6
2018-07-27T08:51:49.347Z,51.9
2018-07-27T08:52:38.573Z,56.9
2018-07-27T08:53:29.198Z,56.5
2018-07-27T08:54:19.515Z,54.8
2018-07-27T08:55:09.619Z,52.8
2018-07-27T08:55:58.596Z,51.6
2018-07-27T08:56:48.853Z,51
2018-07-27T08:57:38.757Z,50.6
2018-07-27T08:58:29.228Z,50.1
2018-07-27T08:59:19.321Z,49.6
2018-07-27T09:00:09.938Z,49
2018-07-27T09:01:00.049Z,48.4
2018-07-27T09:01:49.525Z,47.9
2018-07-27T09:02:39.419Z,47.4
2018-07-27T09:03:29.941Z,47.8
2018-07-27T09:04:19.516Z,54.3
2018-07-27T09:05:09.544Z,61
2018-07-27T09:06:00.219Z,62
2018-07-27T09:06:50.192Z,61.3
2018-07-27T09:07:39.456Z,59.1
2018-07-27T09:08:30.583Z,56.5
2018-07-27T09:09:20.371Z,55.4
2018-07-27T09:10:10.853Z,56.8
2018-07-27T09:11:00.471Z,59.3
2018-07-27T09:11:50.912Z,61.3
2018-07-27T09:12:40.965Z,62.4
2018-07-27T09:13:31.003Z,62.4
2018-07-27T09:14:20.217Z,61.6
2018-07-27T09:15:11.180Z,60.8
2018-07-27T09:16:01.207Z,60.5
2018-07-27T09:16:51.014Z,60.6
2018-07-27T09:17:41.327Z,61
2018-07-27T09:18:31.401Z,61.9
2018-07-27T09:19:21.490Z,62.6
2018-07-27T09:20:11.533Z,63.1
2018-07-27T09:21:01.632Z,63.2
2018-07-27T09:21:51.637Z,63.2
2018-07-27T09:22:41.729Z,63.2
2018-07-27T09:23:31.229Z,63.3
2018-07-27T09:24:22.425Z,63.6
2018-07-27T09:25:14.806Z,64.1
2018-07-27T09:26:02.022Z,64.3
2018-07-27T09:26:52.058Z,64.6
2018-07-27T09:27:41.538Z,64.8
2018-07-27T09:28:32.162Z,64.9
2018-07-27T09:29:22.273Z,65.3
2018-07-27T09:30:12.030Z,65.5
2018-07-27T09:31:02.354Z,65.8
2018-07-27T09:31:51.923Z,65.9
2018-07-27T09:32:42.444Z,66.2
2018-07-27T09:33:32.250Z,66.4
2018-07-27T09:34:22.348Z,66.6
2018-07-27T09:35:12.759Z,66.6
2018-07-27T09:36:02.428Z,66.7
2018-07-27T09:36:52.564Z,66.8
2018-07-27T09:37:42.076Z,67
2018-07-27T09:38:33.017Z,67.3
2018-07-27T09:39:22.741Z,67.5
2018-07-27T09:40:12.800Z,67.8
2018-07-27T09:41:02.883Z,67.9
2018-07-27T09:41:52.608Z,68.1
2018-07-27T09:42:42.993Z,68.2
2018-07-27T09:43:33.203Z,68.3
2018-07-27T09:44:23.383Z,68.4
2018-07-27T09:45:13.465Z,68.6
2018-07-27T09:46:03.568Z,68.8
2018-07-27T09:46:53.011Z,69
2018-07-27T09:47:43.623Z,69.2
2018-07-27T09:48:33.145Z,69.4
2018-07-27T09:49:23.837Z,69.5
2018-07-27T09:50:13.873Z,69.5
2018-07-27T09:51:03.980Z,69.6
2018-07-27T09:51:53.718Z,69.6
2018-07-27T09:52:43.790Z,69.7
2018-07-27T09:53:33.232Z,69.8
2018-07-27T09:54:23.630Z,69.9
2018-07-27T09:55:14.219Z,70.1
2018-07-27T09:56:04.296Z,69.8
2018-07-27T09:56:54.334Z,68.8
2018-07-27T09:57:44.463Z,67.9
2018-07-27T09:58:34.550Z,68.1
2018-07-27T09:59:24.284Z,68.6
2018-07-27T10:00:13.605Z,69.3
2018-07-27T10:01:04.709Z,69.8
2018-07-27T10:01:54.724Z,70.1
2018-07-27T10:02:44.506Z,70.1
2018-07-27T10:03:34.876Z,69.9
2018-07-27T10:04:24.916Z,69.8
2018-07-27T10:05:14.981Z,69.9
2018-07-27T10:06:04.786Z,70.1
2018-07-27T10:06:54.838Z,70.4
2018-07-27T10:07:44.936Z,70.6
2018-07-27T10:08:34.676Z,70.8
2018-07-27T10:09:24.756Z,70.9
2018-07-27T10:10:15.423Z,71.1
2018-07-27T10:11:05.148Z,71.2
2018-07-27T10:11:55.226Z,71.3
2018-07-27T10:12:45.856Z,71.4
2018-07-27T10:13:35.630Z,71.5
2018-07-27T10:14:25.396Z,71.6
2018-07-27T10:15:14.918Z,71.6
2018-07-27T10:16:05.251Z,71.8
2018-07-27T10:16:55.880Z,71.9
2018-07-27T10:17:45.646Z,72
2018-07-27T10:18:36.480Z,72.1
2018-07-27T10:19:26.125Z,72.1
2018-07-27T10:20:15.870Z,72.1
2018-07-27T10:21:05.657Z,72.2
2018-07-27T10:21:56.270Z,72.2
2018-07-27T10:22:46.365Z,72.3
2018-07-27T10:23:36.129Z,72.3
2018-07-27T10:24:26.473Z,72.4
2018-07-27T10:25:16.285Z,72.6
2018-07-27T10:26:06.082Z,72.7
2018-07-27T10:26:56.682Z,72.7
2018-07-27T10:27:46.762Z,72.7
2018-07-27T10:28:36.554Z,72.8
2018-07-27T10:29:26.636Z,72.8
2018-07-27T10:30:16.722Z,72.9
2018-07-27T10:31:07.144Z,73
2018-07-27T10:31:57.083Z,73.1
2018-07-27T10:32:47.154Z,73.1
2018-07-27T10:33:36.408Z,73.1
2018-07-27T10:34:27.288Z,73.2
2018-07-27T10:35:17.321Z,73.3
2018-07-27T10:36:07.404Z,73.3
2018-07-27T10:36:57.192Z,73.4
2018-07-27T10:37:47.576Z,73.4
2018-07-27T10:38:37.487Z,73.4
2018-07-27T10:39:27.658Z,73.5
2018-07-27T10:40:17.444Z,73.6
2018-07-27T10:41:07.517Z,73.6
2018-07-27T10:41:57.841Z,73.6
2018-07-27T10:42:47.876Z,73.6
2018-07-27T10:43:38.059Z,73.6
2018-07-27T10:44:27.776Z,73.5
2018-07-27T10:45:18.101Z,73.5
2018-07-27T10:46:07.620Z,73.5
2018-07-27T10:46:57.107Z,73.5
2018-07-27T10:47:47.718Z,73.6
2018-07-27T10:48:38.115Z,73.6
2018-07-27T10:49:28.440Z,73.7
2018-07-27T10:50:18.852Z,73.6
2018-07-27T10:51:08.008Z,73.7
2018-07-27T10:51:58.075Z,73.7
2018-07-27T10:52:48.666Z,73.7
2018-07-27T10:53:38.179Z,73.8
2018-07-27T10:54:28.545Z,73.8
2018-07-27T10:55:18.326Z,73.8
2018-07-27T10:56:08.093Z,73.9
2018-07-27T10:56:58.433Z,73.9
2018-07-27T10:57:49.072Z,73.9
2018-07-27T10:58:38.981Z,74
2018-07-27T10:59:28.657Z,74
2018-07-27T11:00:19.035Z,74.1
2018-07-27T11:01:09.083Z,74.1
2018-07-27T11:01:58.857Z,74.1
2018-07-27T11:02:49.487Z,74.1
2018-07-27T11:03:39.565Z,74.1
2018-07-27T11:04:29.621Z,74.1
2018-07-27T11:05:19.407Z,74.1
2018-07-27T11:06:09.765Z,74.2
2018-07-27T11:06:59.559Z,74.2